sensor_id;sensor_type;location;lat;lon;timestamp;P1;durP1;ratioP1;P2;durP2;ratioP2
80101;SDS011;69407;44.966;19.622;2024-01-10T00:01:06;31.13;;;13.07;;
80101;SDS011;69407;44.966;19.622;2024-01-10T00:03:32;29.50;;;12.15;;
80101;SDS011;69407;44.966;19.622;2024-01-10T00:05:57;33.80;;;12.48;;
80101;SDS011;69407;44.966;19.622;2024-01-10T00:08:22;32.22;;;12.90;;
80101;SDS011;69407;44.966;19.622;2024-01-10T00:10:48;36.08;;;15.48;;
80101;SDS011;69407;44.966;19.622;2024-01-10T00:13:13;31.57;;;13.80;;
80101;SDS011;69407;44.966;19.622;2024-01-10T00:15:38;39.80;;;14.85;;
80101;SDS011;69407;44.966;19.622;2024-01-10T00:18:04;32.90;;;13.73;;
80101;SDS011;69407;44.966;19.622;2024-01-10T00:20:29;32.55;;;12.63;;
80101;SDS011;69407;44.966;19.622;2024-01-10T00:22:55;33.40;;;13.90;;
80101;SDS011;69407;44.966;19.622;2024-01-10T00:25:20;36.30;;;12.45;;
80101;SDS011;69407;44.966;19.622;2024-01-10T00:27:45;33.58;;;13.43;;
80101;SDS011;69407;44.966;19.622;2024-01-10T00:30:11;29.83;;;12.23;;
80101;SDS011;69407;44.966;19.622;2024-01-10T00:32:36;31.98;;;10.90;;
80101;SDS011;69407;44.966;19.622;2024-01-10T00:35:01;28.98;;;12.85;;
80101;SDS011;69407;44.966;19.622;2024-01-10T00:37:28;23.70;;;10.38;;
80101;SDS011;69407;44.966;19.622;2024-01-10T00:39:53;27.67;;;11.93;;
80101;SDS011;69407;44.966;19.622;2024-01-10T00:42:18;23.33;;;8.60;;
80101;SDS011;69407;44.966;19.622;2024-01-10T00:44:43;21.57;;;9.50;;
80101;SDS011;69407;44.966;19.622;2024-01-10T00:47:10;24.05;;;9.35;;
80101;SDS011;69407;44.966;19.622;2024-01-10T00:49:35;24.27;;;10.63;;
80101;SDS011;69407;44.966;19.622;2024-01-10T00:52:01;23.63;;;9.52;;
80101;SDS011;69407;44.966;19.622;2024-01-10T00:54:26;20.77;;;10.27;;
80101;SDS011;69407;44.966;19.622;2024-01-10T00:56:51;23.13;;;8.90;;
80101;SDS011;69407;44.966;19.622;2024-01-10T00:59:17;24.13;;;9.77;;
80101;SDS011;69407;44.966;19.622;2024-01-10T01:01:42;21.15;;;8.82;;
80101;SDS011;69407;44.966;19.622;2024-01-10T01:04:07;23.50;;;9.50;;
80101;SDS011;69407;44.966;19.622;2024-01-10T01:06:33;23.90;;;9.30;;
80101;SDS011;69407;44.966;19.622;2024-01-10T01:08:58;23.57;;;10.77;;
80101;SDS011;69407;44.966;19.622;2024-01-10T01:11:23;24.05;;;10.30;;
80101;SDS011;69407;44.966;19.622;2024-01-10T01:13:49;20.87;;;8.77;;
80101;SDS011;69407;44.966;19.622;2024-01-10T01:16:14;18.83;;;8.40;;
80101;SDS011;69407;44.966;19.622;2024-01-10T01:18:39;18.27;;;9.77;;
80101;SDS011;69407;44.966;19.622;2024-01-10T01:21:05;20.50;;;7.90;;
80101;SDS011;69407;44.966;19.622;2024-01-10T01:23:30;22.40;;;9.60;;
80101;SDS011;69407;44.966;19.622;2024-01-10T01:25:55;22.92;;;9.85;;
80101;SDS011;69407;44.966;19.622;2024-01-10T01:28:21;22.13;;;7.95;;
80101;SDS011;69407;44.966;19.622;2024-01-10T01:30:46;23.60;;;8.73;;
80101;SDS011;69407;44.966;19.622;2024-01-10T01:33:11;23.33;;;9.40;;
80101;SDS011;69407;44.966;19.622;2024-01-10T01:35:37;24.90;;;10.23;;
80101;SDS011;69407;44.966;19.622;2024-01-10T01:38:02;29.20;;;13.07;;
80101;SDS011;69407;44.966;19.622;2024-01-10T01:40:27;40.25;;;14.38;;
80101;SDS011;69407;44.966;19.622;2024-01-10T01:42:53;42.35;;;14.93;;
80101;SDS011;69407;44.966;19.622;2024-01-10T01:45:18;41.03;;;16.45;;
80101;SDS011;69407;44.966;19.622;2024-01-10T01:47:44;34.25;;;14.23;;
80101;SDS011;69407;44.966;19.622;2024-01-10T01:50:09;36.53;;;12.77;;
80101;SDS011;69407;44.966;19.622;2024-01-10T01:52:35;37.75;;;14.38;;
80101;SDS011;69407;44.966;19.622;2024-01-10T01:55:01;40.33;;;15.27;;
80101;SDS011;69407;44.966;19.622;2024-01-10T01:57:26;33.42;;;15.25;;
80101;SDS011;69407;44.966;19.622;2024-01-10T01:59:51;40.40;;;13.48;;
80101;SDS011;69407;44.966;19.622;2024-01-10T02:02:17;41.00;;;13.32;;
80101;SDS011;69407;44.966;19.622;2024-01-10T02:04:42;30.20;;;12.77;;
80101;SDS011;69407;44.966;19.622;2024-01-10T02:07:08;30.77;;;12.25;;
80101;SDS011;69407;44.966;19.622;2024-01-10T02:09:34;27.65;;;10.70;;
80101;SDS011;69407;44.966;19.622;2024-01-10T02:11:59;23.10;;;9.93;;
80101;SDS011;69407;44.966;19.622;2024-01-10T02:14:24;25.73;;;10.43;;
80101;SDS011;69407;44.966;19.622;2024-01-10T02:16:49;37.38;;;13.32;;
80101;SDS011;69407;44.966;19.622;2024-01-10T02:19:18;32.63;;;12.63;;
80101;SDS011;69407;44.966;19.622;2024-01-10T02:24:09;31.98;;;13.32;;
80101;SDS011;69407;44.966;19.622;2024-01-10T02:26:34;40.87;;;16.10;;
80101;SDS011;69407;44.966;19.622;2024-01-10T02:29:00;33.47;;;13.33;;
80101;SDS011;69407;44.966;19.622;2024-01-10T02:31:25;28.67;;;13.43;;
80101;SDS011;69407;44.966;19.622;2024-01-10T02:33:52;33.33;;;11.95;;
80101;SDS011;69407;44.966;19.622;2024-01-10T02:36:17;31.88;;;12.68;;
80101;SDS011;69407;44.966;19.622;2024-01-10T02:38:43;25.23;;;10.73;;
80101;SDS011;69407;44.966;19.622;2024-01-10T02:41:08;28.33;;;11.20;;
80101;SDS011;69407;44.966;19.622;2024-01-10T02:43:33;30.20;;;11.80;;
80101;SDS011;69407;44.966;19.622;2024-01-10T02:45:58;28.00;;;11.20;;
80101;SDS011;69407;44.966;19.622;2024-01-10T02:48:24;27.65;;;12.07;;
80101;SDS011;69407;44.966;19.622;2024-01-10T02:50:50;39.53;;;13.77;;
80101;SDS011;69407;44.966;19.622;2024-01-10T02:53:15;31.97;;;10.50;;
80101;SDS011;69407;44.966;19.622;2024-01-10T02:55:41;32.17;;;10.95;;
80101;SDS011;69407;44.966;19.622;2024-01-10T02:58:07;29.48;;;10.77;;
80101;SDS011;69407;44.966;19.622;2024-01-10T03:00:32;25.30;;;10.70;;
80101;SDS011;69407;44.966;19.622;2024-01-10T03:02:57;22.17;;;9.57;;
80101;SDS011;69407;44.966;19.622;2024-01-10T03:05:22;21.67;;;8.30;;
80101;SDS011;69407;44.966;19.622;2024-01-10T03:07:48;24.83;;;9.50;;
80101;SDS011;69407;44.966;19.622;2024-01-10T03:10:13;21.13;;;8.80;;
80101;SDS011;69407;44.966;19.622;2024-01-10T03:12:39;25.85;;;8.80;;
80101;SDS011;69407;44.966;19.622;2024-01-10T03:15:05;31.60;;;10.43;;
80101;SDS011;69407;44.966;19.622;2024-01-10T03:17:31;32.65;;;10.73;;
80101;SDS011;69407;44.966;19.622;2024-01-10T03:19:59;29.85;;;9.35;;
80101;SDS011;69407;44.966;19.622;2024-01-10T03:22:24;26.17;;;9.68;;
80101;SDS011;69407;44.966;19.622;2024-01-10T03:24:49;20.40;;;8.80;;
80101;SDS011;69407;44.966;19.622;2024-01-10T03:27:14;21.17;;;8.67;;
80101;SDS011;69407;44.966;19.622;2024-01-10T03:29:40;21.00;;;8.37;;
80101;SDS011;69407;44.966;19.622;2024-01-10T03:32:05;17.75;;;7.85;;
80101;SDS011;69407;44.966;19.622;2024-01-10T03:34:31;25.65;;;8.65;;
80101;SDS011;69407;44.966;19.622;2024-01-10T03:36:56;17.92;;;8.38;;
80101;SDS011;69407;44.966;19.622;2024-01-10T03:39:22;24.45;;;8.80;;
80101;SDS011;69407;44.966;19.622;2024-01-10T03:41:47;22.88;;;8.10;;
80101;SDS011;69407;44.966;19.622;2024-01-10T03:44:13;22.98;;;9.50;;
80101;SDS011;69407;44.966;19.622;2024-01-10T03:46:39;24.35;;;9.57;;
80101;SDS011;69407;44.966;19.622;2024-01-10T03:49:04;20.63;;;8.83;;
80101;SDS011;69407;44.966;19.622;2024-01-10T03:51:29;21.98;;;7.50;;
80101;SDS011;69407;44.966;19.622;2024-01-10T03:53:55;27.65;;;10.35;;
80101;SDS011;69407;44.966;19.622;2024-01-10T03:56:20;30.48;;;12.77;;
80101;SDS011;69407;44.966;19.622;2024-01-10T03:58:46;25.15;;;11.00;;
80101;SDS011;69407;44.966;19.622;2024-01-10T04:01:13;33.80;;;12.50;;
80101;SDS011;69407;44.966;19.622;2024-01-10T04:03:39;34.50;;;12.50;;
80101;SDS011;69407;44.966;19.622;2024-01-10T04:06:07;35.15;;;13.30;;
80101;SDS011;69407;44.966;19.622;2024-01-10T04:08:32;30.35;;;12.90;;
80101;SDS011;69407;44.966;19.622;2024-01-10T04:10:58;35.30;;;12.67;;
80101;SDS011;69407;44.966;19.622;2024-01-10T04:13:23;29.25;;;11.25;;
80101;SDS011;69407;44.966;19.622;2024-01-10T04:15:48;29.58;;;12.02;;
80101;SDS011;69407;44.966;19.622;2024-01-10T04:18:14;26.48;;;10.82;;
80101;SDS011;69407;44.966;19.622;2024-01-10T04:20:39;25.30;;;10.07;;
80101;SDS011;69407;44.966;19.622;2024-01-10T04:23:04;31.80;;;11.33;;
80101;SDS011;69407;44.966;19.622;2024-01-10T04:25:30;27.87;;;13.40;;
80101;SDS011;69407;44.966;19.622;2024-01-10T04:27:55;31.40;;;13.68;;
80101;SDS011;69407;44.966;19.622;2024-01-10T04:30:22;30.95;;;13.98;;
80101;SDS011;69407;44.966;19.622;2024-01-10T04:32:47;35.33;;;14.93;;
80101;SDS011;69407;44.966;19.622;2024-01-10T04:35:12;40.50;;;18.13;;
80101;SDS011;69407;44.966;19.622;2024-01-10T04:37:38;42.50;;;16.53;;
80101;SDS011;69407;44.966;19.622;2024-01-10T04:40:03;40.78;;;16.52;;
80101;SDS011;69407;44.966;19.622;2024-01-10T04:42:29;42.03;;;15.95;;
80101;SDS011;69407;44.966;19.622;2024-01-10T04:44:55;45.88;;;18.42;;
80101;SDS011;69407;44.966;19.622;2024-01-10T04:47:20;58.70;;;24.67;;
80101;SDS011;69407;44.966;19.622;2024-01-10T04:49:46;57.80;;;22.57;;
80101;SDS011;69407;44.966;19.622;2024-01-10T04:52:11;59.88;;;23.98;;
80101;SDS011;69407;44.966;19.622;2024-01-10T04:54:37;59.10;;;23.02;;
80101;SDS011;69407;44.966;19.622;2024-01-10T04:57:02;61.65;;;24.05;;
80101;SDS011;69407;44.966;19.622;2024-01-10T04:59:28;58.08;;;24.15;;
80101;SDS011;69407;44.966;19.622;2024-01-10T05:01:53;57.63;;;24.80;;
80101;SDS011;69407;44.966;19.622;2024-01-10T05:04:18;66.60;;;24.80;;
80101;SDS011;69407;44.966;19.622;2024-01-10T05:06:44;53.85;;;21.33;;
80101;SDS011;69407;44.966;19.622;2024-01-10T05:09:09;56.70;;;23.33;;
80101;SDS011;69407;44.966;19.622;2024-01-10T05:11:35;55.80;;;20.95;;
80101;SDS011;69407;44.966;19.622;2024-01-10T05:14:01;61.63;;;22.55;;
80101;SDS011;69407;44.966;19.622;2024-01-10T05:16:26;57.67;;;23.88;;
80101;SDS011;69407;44.966;19.622;2024-01-10T05:18:51;60.60;;;24.07;;
80101;SDS011;69407;44.966;19.622;2024-01-10T05:21:17;52.35;;;21.65;;
80101;SDS011;69407;44.966;19.622;2024-01-10T05:23:42;40.25;;;14.82;;
80101;SDS011;69407;44.966;19.622;2024-01-10T05:26:08;31.70;;;11.90;;
80101;SDS011;69407;44.966;19.622;2024-01-10T05:28:33;25.87;;;11.43;;
80101;SDS011;69407;44.966;19.622;2024-01-10T05:30:58;32.03;;;12.80;;
80101;SDS011;69407;44.966;19.622;2024-01-10T05:33:24;26.90;;;9.60;;
80101;SDS011;69407;44.966;19.622;2024-01-10T05:35:49;26.02;;;8.88;;
80101;SDS011;69407;44.966;19.622;2024-01-10T05:38:14;30.33;;;12.68;;
80101;SDS011;69407;44.966;19.622;2024-01-10T05:40:40;32.22;;;13.13;;
80101;SDS011;69407;44.966;19.622;2024-01-10T05:43:05;24.07;;;10.47;;
80101;SDS011;69407;44.966;19.622;2024-01-10T05:45:32;27.65;;;11.55;;
80101;SDS011;69407;44.966;19.622;2024-01-10T05:47:58;22.95;;;10.50;;
80101;SDS011;69407;44.966;19.622;2024-01-10T05:50:23;24.25;;;8.70;;
80101;SDS011;69407;44.966;19.622;2024-01-10T05:52:48;19.27;;;8.18;;
80101;SDS011;69407;44.966;19.622;2024-01-10T05:55:14;20.95;;;6.97;;
80101;SDS011;69407;44.966;19.622;2024-01-10T05:57:39;18.20;;;7.73;;
80101;SDS011;69407;44.966;19.622;2024-01-10T06:00:05;18.13;;;7.68;;
80101;SDS011;69407;44.966;19.622;2024-01-10T06:02:37;17.77;;;8.25;;
80101;SDS011;69407;44.966;19.622;2024-01-10T06:05:06;22.15;;;8.82;;
80101;SDS011;69407;44.966;19.622;2024-01-10T06:07:31;25.55;;;9.25;;
80101;SDS011;69407;44.966;19.622;2024-01-10T06:09:56;35.50;;;12.83;;
80101;SDS011;69407;44.966;19.622;2024-01-10T06:12:22;73.13;;;23.65;;
80101;SDS011;69407;44.966;19.622;2024-01-10T06:14:47;145.05;;;42.63;;
80101;SDS011;69407;44.966;19.622;2024-01-10T06:17:12;230.40;;;64.20;;
80101;SDS011;69407;44.966;19.622;2024-01-10T06:19:38;186.87;;;55.90;;
80101;SDS011;69407;44.966;19.622;2024-01-10T06:22:04;71.68;;;23.67;;
80101;SDS011;69407;44.966;19.622;2024-01-10T06:24:29;31.40;;;13.85;;
80101;SDS011;69407;44.966;19.622;2024-01-10T06:26:55;34.70;;;12.17;;
80101;SDS011;69407;44.966;19.622;2024-01-10T06:29:20;31.87;;;11.10;;
80101;SDS011;69407;44.966;19.622;2024-01-10T06:31:46;59.85;;;21.88;;
80101;SDS011;69407;44.966;19.622;2024-01-10T06:34:12;43.72;;;17.85;;
80101;SDS011;69407;44.966;19.622;2024-01-10T06:36:37;28.67;;;12.03;;
80101;SDS011;69407;44.966;19.622;2024-01-10T06:39:03;27.60;;;11.48;;
80101;SDS011;69407;44.966;19.622;2024-01-10T06:41:29;23.45;;;10.50;;
80101;SDS011;69407;44.966;19.622;2024-01-10T06:43:54;25.75;;;11.43;;
80101;SDS011;69407;44.966;19.622;2024-01-10T06:46:20;32.35;;;15.20;;
80101;SDS011;69407;44.966;19.622;2024-01-10T06:48:45;29.90;;;13.50;;
80101;SDS011;69407;44.966;19.622;2024-01-10T06:51:14;27.20;;;11.40;;
80101;SDS011;69407;44.966;19.622;2024-01-10T06:53:40;27.75;;;12.27;;
80101;SDS011;69407;44.966;19.622;2024-01-10T06:56:05;30.17;;;13.30;;
80101;SDS011;69407;44.966;19.622;2024-01-10T06:58:31;48.90;;;18.33;;
80101;SDS011;69407;44.966;19.622;2024-01-10T07:00:56;54.58;;;21.27;;
80101;SDS011;69407;44.966;19.622;2024-01-10T07:03:22;48.40;;;18.40;;
80101;SDS011;69407;44.966;19.622;2024-01-10T07:05:47;52.50;;;21.90;;
80101;SDS011;69407;44.966;19.622;2024-01-10T07:08:12;40.92;;;15.05;;
80101;SDS011;69407;44.966;19.622;2024-01-10T07:10:37;27.70;;;10.93;;
80101;SDS011;69407;44.966;19.622;2024-01-10T07:13:03;37.95;;;13.63;;
80101;SDS011;69407;44.966;19.622;2024-01-10T07:15:29;32.47;;;14.20;;
80101;SDS011;69407;44.966;19.622;2024-01-10T07:17:54;32.17;;;13.50;;
80101;SDS011;69407;44.966;19.622;2024-01-10T07:20:20;17.17;;;7.20;;
80101;SDS011;69407;44.966;19.622;2024-01-10T07:22:45;30.63;;;16.33;;
80101;SDS011;69407;44.966;19.622;2024-01-10T07:25:10;27.52;;;11.68;;
80101;SDS011;69407;44.966;19.622;2024-01-10T07:27:39;35.83;;;17.40;;
80101;SDS011;69407;44.966;19.622;2024-01-10T07:30:05;41.25;;;18.58;;
80101;SDS011;69407;44.966;19.622;2024-01-10T07:32:36;52.97;;;19.10;;
80101;SDS011;69407;44.966;19.622;2024-01-10T07:35:02;42.50;;;17.13;;
80101;SDS011;69407;44.966;19.622;2024-01-10T07:37:27;39.05;;;16.80;;
80101;SDS011;69407;44.966;19.622;2024-01-10T07:39:52;36.87;;;17.53;;
80101;SDS011;69407;44.966;19.622;2024-01-10T07:42:19;40.63;;;20.17;;
80101;SDS011;69407;44.966;19.622;2024-01-10T07:44:44;37.87;;;17.73;;
80101;SDS011;69407;44.966;19.622;2024-01-10T07:47:09;50.00;;;23.67;;
80101;SDS011;69407;44.966;19.622;2024-01-10T07:49:35;49.35;;;22.33;;
80101;SDS011;69407;44.966;19.622;2024-01-10T07:52:01;47.03;;;21.37;;
80101;SDS011;69407;44.966;19.622;2024-01-10T07:54:27;64.85;;;26.45;;
80101;SDS011;69407;44.966;19.622;2024-01-10T07:56:52;57.43;;;23.43;;
80101;SDS011;69407;44.966;19.622;2024-01-10T07:59:19;55.42;;;22.02;;
80101;SDS011;69407;44.966;19.622;2024-01-10T08:01:53;74.32;;;31.10;;
80101;SDS011;69407;44.966;19.622;2024-01-10T08:04:20;44.35;;;18.52;;
80101;SDS011;69407;44.966;19.622;2024-01-10T08:06:45;42.15;;;18.25;;
80101;SDS011;69407;44.966;19.622;2024-01-10T08:09:11;23.23;;;10.73;;
80101;SDS011;69407;44.966;19.622;2024-01-10T08:11:37;37.97;;;17.43;;
80101;SDS011;69407;44.966;19.622;2024-01-10T08:14:03;41.88;;;20.52;;
80101;SDS011;69407;44.966;19.622;2024-01-10T08:16:28;40.63;;;19.03;;
80101;SDS011;69407;44.966;19.622;2024-01-10T08:18:53;41.03;;;20.33;;
80101;SDS011;69407;44.966;19.622;2024-01-10T08:21:19;36.25;;;17.17;;
80101;SDS011;69407;44.966;19.622;2024-01-10T08:23:44;37.60;;;16.75;;
80101;SDS011;69407;44.966;19.622;2024-01-10T08:26:09;35.13;;;16.45;;
80101;SDS011;69407;44.966;19.622;2024-01-10T08:28:35;35.93;;;17.27;;
80101;SDS011;69407;44.966;19.622;2024-01-10T08:31:00;36.15;;;17.15;;
80101;SDS011;69407;44.966;19.622;2024-01-10T08:33:25;42.57;;;20.50;;
80101;SDS011;69407;44.966;19.622;2024-01-10T08:35:50;32.23;;;16.23;;
80101;SDS011;69407;44.966;19.622;2024-01-10T08:38:16;39.67;;;20.20;;
80101;SDS011;69407;44.966;19.622;2024-01-10T08:40:41;34.28;;;16.83;;
80101;SDS011;69407;44.966;19.622;2024-01-10T08:43:06;38.03;;;18.55;;
80101;SDS011;69407;44.966;19.622;2024-01-10T08:45:32;42.90;;;21.95;;
80101;SDS011;69407;44.966;19.622;2024-01-10T08:47:57;35.50;;;21.60;;
80101;SDS011;69407;44.966;19.622;2024-01-10T08:50:23;39.83;;;23.60;;
80101;SDS011;69407;44.966;19.622;2024-01-10T08:52:48;43.63;;;27.90;;
80101;SDS011;69407;44.966;19.622;2024-01-10T08:55:14;44.65;;;24.45;;
80101;SDS011;69407;44.966;19.622;2024-01-10T08:57:39;48.97;;;26.40;;
80101;SDS011;69407;44.966;19.622;2024-01-10T09:00:05;42.87;;;24.63;;
80101;SDS011;69407;44.966;19.622;2024-01-10T09:02:32;46.78;;;26.90;;
80101;SDS011;69407;44.966;19.622;2024-01-10T09:04:58;42.35;;;24.55;;
80101;SDS011;69407;44.966;19.622;2024-01-10T09:07:23;40.30;;;25.15;;
80101;SDS011;69407;44.966;19.622;2024-01-10T09:09:49;42.05;;;24.98;;
80101;SDS011;69407;44.966;19.622;2024-01-10T09:12:14;45.83;;;27.17;;
80101;SDS011;69407;44.966;19.622;2024-01-10T09:14:39;45.42;;;26.83;;
80101;SDS011;69407;44.966;19.622;2024-01-10T09:17:05;42.23;;;26.53;;
80101;SDS011;69407;44.966;19.622;2024-01-10T09:19:30;44.58;;;27.85;;
80101;SDS011;69407;44.966;19.622;2024-01-10T09:21:56;43.78;;;28.25;;
80101;SDS011;69407;44.966;19.622;2024-01-10T09:24:22;51.80;;;30.98;;
80101;SDS011;69407;44.966;19.622;2024-01-10T09:26:48;72.18;;;39.38;;
80101;SDS011;69407;44.966;19.622;2024-01-10T09:29:13;72.07;;;42.50;;
80101;SDS011;69407;44.966;19.622;2024-01-10T09:31:38;66.50;;;38.10;;
80101;SDS011;69407;44.966;19.622;2024-01-10T09:34:03;69.63;;;36.77;;
80101;SDS011;69407;44.966;19.622;2024-01-10T09:36:30;58.80;;;32.50;;
80101;SDS011;69407;44.966;19.622;2024-01-10T09:38:55;63.33;;;37.40;;
80101;SDS011;69407;44.966;19.622;2024-01-10T09:41:20;84.32;;;50.63;;
80101;SDS011;69407;44.966;19.622;2024-01-10T09:43:46;79.40;;;42.78;;
80101;SDS011;69407;44.966;19.622;2024-01-10T09:46:12;76.55;;;41.90;;
80101;SDS011;69407;44.966;19.622;2024-01-10T09:48:37;69.82;;;41.83;;
80101;SDS011;69407;44.966;19.622;2024-01-10T09:51:02;75.88;;;41.20;;
80101;SDS011;69407;44.966;19.622;2024-01-10T09:53:28;62.08;;;34.60;;
80101;SDS011;69407;44.966;19.622;2024-01-10T09:55:56;63.58;;;33.28;;
80101;SDS011;69407;44.966;19.622;2024-01-10T09:58:25;68.45;;;38.28;;
80101;SDS011;69407;44.966;19.622;2024-01-10T10:00:50;52.35;;;28.15;;
80101;SDS011;69407;44.966;19.622;2024-01-10T10:03:16;52.55;;;26.42;;
80101;SDS011;69407;44.966;19.622;2024-01-10T10:05:42;57.47;;;28.65;;
80101;SDS011;69407;44.966;19.622;2024-01-10T10:08:10;49.25;;;25.27;;
80101;SDS011;69407;44.966;19.622;2024-01-10T10:10:35;45.80;;;23.65;;
80101;SDS011;69407;44.966;19.622;2024-01-10T10:13:00;37.37;;;21.53;;
80101;SDS011;69407;44.966;19.622;2024-01-10T10:15:27;40.72;;;20.92;;
80101;SDS011;69407;44.966;19.622;2024-01-10T10:17:52;36.35;;;19.73;;
80101;SDS011;69407;44.966;19.622;2024-01-10T10:20:22;39.15;;;20.88;;
80101;SDS011;69407;44.966;19.622;2024-01-10T10:23:06;54.03;;;26.00;;
80101;SDS011;69407;44.966;19.622;2024-01-10T10:27:57;34.72;;;19.55;;
80101;SDS011;69407;44.966;19.622;2024-01-10T10:30:23;43.30;;;23.25;;
80101;SDS011;69407;44.966;19.622;2024-01-10T10:32:48;50.20;;;23.83;;
80101;SDS011;69407;44.966;19.622;2024-01-10T10:35:14;56.38;;;23.98;;
80101;SDS011;69407;44.966;19.622;2024-01-10T10:37:39;38.22;;;21.10;;
80101;SDS011;69407;44.966;19.622;2024-01-10T10:40:05;40.83;;;23.52;;
80101;SDS011;69407;44.966;19.622;2024-01-10T10:42:34;44.47;;;23.85;;
80101;SDS011;69407;44.966;19.622;2024-01-10T10:45:02;42.65;;;21.02;;
80101;SDS011;69407;44.966;19.622;2024-01-10T10:47:28;52.85;;;25.83;;
80101;SDS011;69407;44.966;19.622;2024-01-10T10:49:55;54.20;;;28.20;;
80101;SDS011;69407;44.966;19.622;2024-01-10T10:52:21;55.17;;;29.00;;
80101;SDS011;69407;44.966;19.622;2024-01-10T10:54:48;62.58;;;31.67;;
80101;SDS011;69407;44.966;19.622;2024-01-10T10:57:15;52.28;;;24.73;;
80101;SDS011;69407;44.966;19.622;2024-01-10T10:59:41;65.90;;;34.00;;
80101;SDS011;69407;44.966;19.622;2024-01-10T11:02:07;70.07;;;34.10;;
80101;SDS011;69407;44.966;19.622;2024-01-10T11:04:34;58.38;;;29.67;;
80101;SDS011;69407;44.966;19.622;2024-01-10T11:07:00;66.78;;;34.58;;
80101;SDS011;69407;44.966;19.622;2024-01-10T11:09:25;63.85;;;31.27;;
80101;SDS011;69407;44.966;19.622;2024-01-10T11:14:29;65.53;;;31.10;;
80101;SDS011;69407;44.966;19.622;2024-01-10T11:17:02;100.10;;;44.60;;
80101;SDS011;69407;44.966;19.622;2024-01-10T11:25:02;72.72;;;33.03;;
80101;SDS011;69407;44.966;19.622;2024-01-10T11:27:28;66.43;;;31.80;;
80101;SDS011;69407;44.966;19.622;2024-01-10T11:29:53;63.70;;;30.63;;
80101;SDS011;69407;44.966;19.622;2024-01-10T11:32:22;72.13;;;32.97;;
80101;SDS011;69407;44.966;19.622;2024-01-10T11:34:55;68.95;;;33.92;;
80101;SDS011;69407;44.966;19.622;2024-01-10T11:37:21;61.17;;;29.67;;
80101;SDS011;69407;44.966;19.622;2024-01-10T11:39:46;67.85;;;33.35;;
80101;SDS011;69407;44.966;19.622;2024-01-10T11:42:20;64.28;;;31.08;;
80101;SDS011;69407;44.966;19.622;2024-01-10T11:44:46;63.10;;;31.75;;
80101;SDS011;69407;44.966;19.622;2024-01-10T11:47:12;62.20;;;31.35;;
80101;SDS011;69407;44.966;19.622;2024-01-10T11:49:39;54.03;;;27.38;;
80101;SDS011;69407;44.966;19.622;2024-01-10T11:52:05;56.70;;;27.58;;
80101;SDS011;69407;44.966;19.622;2024-01-10T11:54:43;61.25;;;28.83;;
80101;SDS011;69407;44.966;19.622;2024-01-10T11:57:12;54.22;;;25.85;;
80101;SDS011;69407;44.966;19.622;2024-01-10T11:59:38;46.95;;;21.13;;
80101;SDS011;69407;44.966;19.622;2024-01-10T12:02:05;47.88;;;24.65;;
80101;SDS011;69407;44.966;19.622;2024-01-10T12:04:33;54.50;;;25.83;;
80101;SDS011;69407;44.966;19.622;2024-01-10T12:07:00;38.45;;;18.00;;
80101;SDS011;69407;44.966;19.622;2024-01-10T12:09:26;39.92;;;21.13;;
80101;SDS011;69407;44.966;19.622;2024-01-10T12:11:52;44.15;;;20.73;;
80101;SDS011;69407;44.966;19.622;2024-01-10T12:14:17;39.78;;;18.23;;
80101;SDS011;69407;44.966;19.622;2024-01-10T12:16:42;42.05;;;18.23;;
80101;SDS011;69407;44.966;19.622;2024-01-10T12:19:09;34.03;;;17.02;;
80101;SDS011;69407;44.966;19.622;2024-01-10T12:21:34;33.83;;;16.17;;
80101;SDS011;69407;44.966;19.622;2024-01-10T12:24:00;47.63;;;20.83;;
80101;SDS011;69407;44.966;19.622;2024-01-10T12:26:25;38.28;;;20.02;;
80101;SDS011;69407;44.966;19.622;2024-01-10T12:28:57;35.70;;;18.33;;
80101;SDS011;69407;44.966;19.622;2024-01-10T12:31:23;79.68;;;31.30;;
80101;SDS011;69407;44.966;19.622;2024-01-10T12:33:48;28.77;;;15.60;;
80101;SDS011;69407;44.966;19.622;2024-01-10T12:36:14;24.10;;;12.73;;
80101;SDS011;69407;44.966;19.622;2024-01-10T12:38:41;25.30;;;13.02;;
80101;SDS011;69407;44.966;19.622;2024-01-10T12:41:07;28.05;;;15.45;;
80101;SDS011;69407;44.966;19.622;2024-01-10T12:43:34;26.17;;;13.85;;
80101;SDS011;69407;44.966;19.622;2024-01-10T12:46:06;29.10;;;14.20;;
80101;SDS011;69407;44.966;19.622;2024-01-10T12:48:31;27.05;;;13.57;;
80101;SDS011;69407;44.966;19.622;2024-01-10T12:50:58;23.65;;;11.95;;
80101;SDS011;69407;44.966;19.622;2024-01-10T12:53:28;23.90;;;12.23;;
80101;SDS011;69407;44.966;19.622;2024-01-10T12:55:54;18.77;;;10.00;;
80101;SDS011;69407;44.966;19.622;2024-01-10T12:58:20;21.95;;;10.30;;
80101;SDS011;69407;44.966;19.622;2024-01-10T13:00:45;18.08;;;8.70;;
80101;SDS011;69407;44.966;19.622;2024-01-10T13:03:10;41.00;;;17.05;;
80101;SDS011;69407;44.966;19.622;2024-01-10T13:05:36;36.15;;;17.38;;
80101;SDS011;69407;44.966;19.622;2024-01-10T13:08:01;35.13;;;15.63;;
80101;SDS011;69407;44.966;19.622;2024-01-10T13:10:26;28.38;;;12.85;;
80101;SDS011;69407;44.966;19.622;2024-01-10T13:12:52;18.52;;;10.00;;
80101;SDS011;69407;44.966;19.622;2024-01-10T13:15:18;17.40;;;9.38;;
80101;SDS011;69407;44.966;19.622;2024-01-10T13:17:43;18.33;;;8.87;;
80101;SDS011;69407;44.966;19.622;2024-01-10T13:20:09;19.17;;;9.37;;
80101;SDS011;69407;44.966;19.622;2024-01-10T13:22:35;19.67;;;10.32;;
80101;SDS011;69407;44.966;19.622;2024-01-10T13:25:00;31.67;;;14.13;;
80101;SDS011;69407;44.966;19.622;2024-01-10T13:27:27;37.47;;;15.23;;
80101;SDS011;69407;44.966;19.622;2024-01-10T13:29:52;34.03;;;13.80;;
80101;SDS011;69407;44.966;19.622;2024-01-10T13:32:17;34.17;;;12.65;;
80101;SDS011;69407;44.966;19.622;2024-01-10T13:34:43;32.07;;;12.97;;
80101;SDS011;69407;44.966;19.622;2024-01-10T13:37:09;28.15;;;12.38;;
80101;SDS011;69407;44.966;19.622;2024-01-10T13:39:37;30.73;;;14.40;;
80101;SDS011;69407;44.966;19.622;2024-01-10T13:42:02;20.85;;;10.73;;
80101;SDS011;69407;44.966;19.622;2024-01-10T13:44:27;20.63;;;12.50;;
80101;SDS011;69407;44.966;19.622;2024-01-10T13:46:53;24.47;;;13.10;;
80101;SDS011;69407;44.966;19.622;2024-01-10T13:49:18;24.17;;;11.82;;
80101;SDS011;69407;44.966;19.622;2024-01-10T13:51:43;20.45;;;11.07;;
80101;SDS011;69407;44.966;19.622;2024-01-10T13:54:09;18.58;;;10.15;;
80101;SDS011;69407;44.966;19.622;2024-01-10T13:56:35;27.02;;;13.73;;
80101;SDS011;69407;44.966;19.622;2024-01-10T13:59:00;28.52;;;15.00;;
80101;SDS011;69407;44.966;19.622;2024-01-10T14:01:27;22.75;;;11.20;;
80101;SDS011;69407;44.966;19.622;2024-01-10T14:03:53;25.33;;;13.75;;
80101;SDS011;69407;44.966;19.622;2024-01-10T14:06:18;23.55;;;12.30;;
80101;SDS011;69407;44.966;19.622;2024-01-10T14:08:44;23.60;;;13.13;;
80101;SDS011;69407;44.966;19.622;2024-01-10T14:11:12;25.95;;;12.70;;
80101;SDS011;69407;44.966;19.622;2024-01-10T14:13:37;26.77;;;13.23;;
80101;SDS011;69407;44.966;19.622;2024-01-10T14:16:03;24.27;;;12.97;;